Garfield County Regional Airport
KRIL : now visible

Airfield :











YOU CAN JOIN US ON...

 
LOGIN :

Register | Disclaimer

   EN    FR    IT 

 









Legend :    VFR   Marginal VFR   IFR   Intensive IFR   Very Intensive IFR
Visi :
Ceiling :
>= 8 km
>= 3000ft
5 to 8 km
1000 to 3000 ft
1500m to 5 km
500 to 1000 ft
800 to 1500m
200 to 500 ft
< 800m
< 200 ft
Symbols :   Thunderstorms  Fog  Heavy snow  Heavy precipitations  Wind > 20 kt






- Airport Elevation : 5548 ft


KRIL - Garfield County Regional

CURRENT METAR :
  • 232153Z AUTO 28012KT 10SM CLR 29/01 A3009 RMK AO2 SLP120 T02890011

EXPIRED METARs :
  • 232053Z AUTO 29010KT 10SM FEW120 29/00 A3011 RMK AO2 SLP123 T02940000 58001
  • 231953Z AUTO 25018G24KT 10SM CLR 27/M01 A3012 RMK AO2 PK WND 26029/1934 SLP127 T02721011

TAF KRIL
Valid from the 23 at 18:00 until the 24 at 18:00 UTC


231740Z 2318/2418 VRB04KT P6SM SCT150 BKN200
FM232000 26013G24KT P6SM SCT150 BKN180
FM240100 16010G20KT P6SM SCT120 BKN200
FM240800 VRB04KT P6SM VCSH SCT090 OVC100
KZDV FIR / North America



MET'MAP, your aeronautical weather chart ! - Copyright ORBIFLY December 2007 - Disclaimer

ORBIFLY MET'MAP TEAM :

Programming & Development : Alexandra Zaïnal
Concept & original design : Baudouin d'Aumeries
Assistance for programming : Marc-Olivier Méhu
Technical & hardware support : Manuel Goepfert

Contact : metmap@orbifly.com




SOURCES & CREDITS :

   NOAA       Earth
Advisory